sensor_id;sensor_type;location;lat;lon;timestamp;pressure;altitude;pressure_sealevel;temperature;humidity
53754;BME280;39667;52.274;20.964;2024-01-30T00:02:24;102107.28;;;2.44;73.34
53754;BME280;39667;52.274;20.964;2024-01-30T00:04:52;102098.33;;;2.45;73.33
53754;BME280;39667;52.274;20.964;2024-01-30T00:07:19;102099.05;;;2.46;73.30
53754;BME280;39667;52.274;20.964;2024-01-30T00:09:47;102092.00;;;2.48;73.34
53754;BME280;39667;52.274;20.964;2024-01-30T00:12:19;102088.48;;;2.47;73.29
53754;BME280;39667;52.274;20.964;2024-01-30T00:14:46;102087.63;;;2.40;73.23
53754;BME280;39667;52.274;20.964;2024-01-30T00:17:16;102086.57;;;2.37;73.29
53754;BME280;39667;52.274;20.964;2024-01-30T00:19:43;102091.23;;;2.33;73.30
53754;BME280;39667;52.274;20.964;2024-01-30T00:22:12;102092.19;;;2.31;73.40
53754;BME280;39667;52.274;20.964;2024-01-30T00:24:42;102092.55;;;2.32;73.45
53754;BME280;39667;52.274;20.964;2024-01-30T00:27:11;102095.09;;;2.30;73.54
53754;BME280;39667;52.274;20.964;2024-01-30T00:29:40;102091.60;;;2.33;73.69
53754;BME280;39667;52.274;20.964;2024-01-30T00:32:08;102095.48;;;2.34;73.52
53754;BME280;39667;52.274;20.964;2024-01-30T00:34:35;102094.04;;;2.33;73.53
53754;BME280;39667;52.274;20.964;2024-01-30T00:37:03;102089.16;;;2.33;73.32
53754;BME280;39667;52.274;20.964;2024-01-30T00:39:30;102089.86;;;2.30;73.34
53754;BME280;39667;52.274;20.964;2024-01-30T00:41:57;102091.35;;;2.32;73.47
53754;BME280;39667;52.274;20.964;2024-01-30T00:44:30;102091.04;;;2.29;73.39
53754;BME280;39667;52.274;20.964;2024-01-30T00:46:59;102091.05;;;2.29;73.51
53754;BME280;39667;52.274;20.964;2024-01-30T00:49:34;102090.48;;;2.32;73.51
53754;BME280;39667;52.274;20.964;2024-01-30T00:52:04;102090.72;;;2.33;73.40
53754;BME280;39667;52.274;20.964;2024-01-30T00:54:33;102090.14;;;2.29;73.15
53754;BME280;39667;52.274;20.964;2024-01-30T00:57:00;102087.35;;;2.21;73.27
53754;BME280;39667;52.274;20.964;2024-01-30T00:59:33;102089.23;;;2.21;73.45
53754;BME280;39667;52.274;20.964;2024-01-30T01:02:01;102085.61;;;2.21;73.33
53754;BME280;39667;52.274;20.964;2024-01-30T01:04:28;102085.24;;;2.18;73.42
53754;BME280;39667;52.274;20.964;2024-01-30T01:06:56;102088.23;;;2.12;73.49
53754;BME280;39667;52.274;20.964;2024-01-30T01:09:24;102087.56;;;2.13;73.67
53754;BME280;39667;52.274;20.964;2024-01-30T01:11:52;102094.39;;;2.13;73.58
53754;BME280;39667;52.274;20.964;2024-01-30T01:14:20;102095.09;;;2.10;73.60
53754;BME280;39667;52.274;20.964;2024-01-30T01:16:47;102094.41;;;2.07;73.57
53754;BME280;39667;52.274;20.964;2024-01-30T01:19:14;102090.08;;;2.01;73.63
53754;BME280;39667;52.274;20.964;2024-01-30T01:21:42;102087.58;;;2.00;73.77
53754;BME280;39667;52.274;20.964;2024-01-30T01:24:10;102088.70;;;1.97;73.74
53754;BME280;39667;52.274;20.964;2024-01-30T01:26:38;102087.42;;;1.96;73.80
53754;BME280;39667;52.274;20.964;2024-01-30T01:29:08;102082.22;;;1.93;73.81
53754;BME280;39667;52.274;20.964;2024-01-30T01:31:39;102081.34;;;1.90;74.11
53754;BME280;39667;52.274;20.964;2024-01-30T01:34:13;102079.27;;;1.87;73.97
53754;BME280;39667;52.274;20.964;2024-01-30T01:36:41;102077.27;;;1.85;74.08
53754;BME280;39667;52.274;20.964;2024-01-30T01:39:16;102077.71;;;1.84;74.22
53754;BME280;39667;52.274;20.964;2024-01-30T01:41:46;102069.19;;;1.83;74.20
53754;BME280;39667;52.274;20.964;2024-01-30T01:44:14;102063.44;;;1.86;74.44
53754;BME280;39667;52.274;20.964;2024-01-30T01:46:42;102064.03;;;1.88;74.15
53754;BME280;39667;52.274;20.964;2024-01-30T01:49:15;102064.34;;;1.87;74.34
53754;BME280;39667;52.274;20.964;2024-01-30T01:51:44;102059.90;;;1.89;74.32
53754;BME280;39667;52.274;20.964;2024-01-30T01:54:14;102055.16;;;1.88;74.41
53754;BME280;39667;52.274;20.964;2024-01-30T01:56:44;102051.41;;;1.89;74.56
53754;BME280;39667;52.274;20.964;2024-01-30T01:59:12;102050.33;;;1.95;74.60
53754;BME280;39667;52.274;20.964;2024-01-30T02:01:45;102052.95;;;1.98;74.34
53754;BME280;39667;52.274;20.964;2024-01-30T02:04:16;102050.91;;;2.00;74.19
53754;BME280;39667;52.274;20.964;2024-01-30T02:06:44;102047.10;;;2.00;74.31
53754;BME280;39667;52.274;20.964;2024-01-30T02:09:13;102049.71;;;2.03;74.33
53754;BME280;39667;52.274;20.964;2024-01-30T02:11:46;102045.98;;;2.05;74.24
53754;BME280;39667;52.274;20.964;2024-01-30T02:14:16;102040.64;;;2.06;74.24
53754;BME280;39667;52.274;20.964;2024-01-30T02:16:43;102035.75;;;2.05;74.10
53754;BME280;39667;52.274;20.964;2024-01-30T02:19:12;102037.28;;;2.05;74.13
53754;BME280;39667;52.274;20.964;2024-01-30T02:21:41;102035.15;;;2.04;73.95
53754;BME280;39667;52.274;20.964;2024-01-30T02:24:08;102036.20;;;2.04;74.10
53754;BME280;39667;52.274;20.964;2024-01-30T02:26:35;102034.39;;;2.06;74.09
53754;BME280;39667;52.274;20.964;2024-01-30T02:29:04;102039.13;;;2.07;73.94
53754;BME280;39667;52.274;20.964;2024-01-30T02:31:31;102038.48;;;2.08;73.97
53754;BME280;39667;52.274;20.964;2024-01-30T02:33:58;102034.55;;;2.06;73.92
53754;BME280;39667;52.274;20.964;2024-01-30T02:36:52;102041.12;;;2.05;73.83
53754;BME280;39667;52.274;20.964;2024-01-30T02:39:19;102037.95;;;2.04;73.94
53754;BME280;39667;52.274;20.964;2024-01-30T02:41:46;102045.50;;;2.02;73.92
53754;BME280;39667;52.274;20.964;2024-01-30T02:44:13;102043.39;;;2.02;73.89
53754;BME280;39667;52.274;20.964;2024-01-30T02:46:41;102048.93;;;2.05;73.85
53754;BME280;39667;52.274;20.964;2024-01-30T02:49:10;102050.58;;;2.07;73.84
53754;BME280;39667;52.274;20.964;2024-01-30T02:51:39;102050.83;;;2.08;73.78
53754;BME280;39667;52.274;20.964;2024-01-30T02:54:07;102051.74;;;2.05;73.74
53754;BME280;39667;52.274;20.964;2024-01-30T02:56:34;102050.48;;;2.04;73.70
53754;BME280;39667;52.274;20.964;2024-01-30T02:59:03;102045.77;;;2.01;73.54
53754;BME280;39667;52.274;20.964;2024-01-30T03:01:31;102043.72;;;1.98;73.80
53754;BME280;39667;52.274;20.964;2024-01-30T03:03:59;102037.85;;;1.98;73.77
53754;BME280;39667;52.274;20.964;2024-01-30T03:06:26;102038.20;;;1.99;73.73
53754;BME280;39667;52.274;20.964;2024-01-30T03:08:53;102040.67;;;2.00;73.66
53754;BME280;39667;52.274;20.964;2024-01-30T03:11:20;102043.34;;;2.01;73.71
53754;BME280;39667;52.274;20.964;2024-01-30T03:13:49;102045.59;;;2.04;73.67
53754;BME280;39667;52.274;20.964;2024-01-30T03:16:19;102046.54;;;2.02;73.44
53754;BME280;39667;52.274;20.964;2024-01-30T03:18:46;102042.05;;;1.96;73.44
53754;BME280;39667;52.274;20.964;2024-01-30T03:21:14;102043.90;;;1.95;73.56
53754;BME280;39667;52.274;20.964;2024-01-30T03:23:43;102038.38;;;1.92;73.46
53754;BME280;39667;52.274;20.964;2024-01-30T03:26:12;102041.94;;;1.91;73.51
53754;BME280;39667;52.274;20.964;2024-01-30T03:28:39;102040.64;;;1.89;73.55
53754;BME280;39667;52.274;20.964;2024-01-30T03:31:10;102043.64;;;1.90;73.58
53754;BME280;39667;52.274;20.964;2024-01-30T03:33:37;102042.06;;;1.93;73.59
53754;BME280;39667;52.274;20.964;2024-01-30T03:36:09;102038.41;;;1.96;73.61
53754;BME280;39667;52.274;20.964;2024-01-30T03:38:37;102033.45;;;1.97;73.44
53754;BME280;39667;52.274;20.964;2024-01-30T03:41:08;102036.34;;;1.96;73.43
53754;BME280;39667;52.274;20.964;2024-01-30T03:43:36;102029.39;;;1.90;73.19
53754;BME280;39667;52.274;20.964;2024-01-30T03:46:03;102032.54;;;1.83;73.35
53754;BME280;39667;52.274;20.964;2024-01-30T03:48:32;102032.16;;;1.83;73.45
53754;BME280;39667;52.274;20.964;2024-01-30T03:51:02;102030.34;;;1.81;73.37
53754;BME280;39667;52.274;20.964;2024-01-30T03:53:29;102026.58;;;1.79;73.35
53754;BME280;39667;52.274;20.964;2024-01-30T03:55:57;102022.40;;;1.72;73.15
53754;BME280;39667;52.274;20.964;2024-01-30T03:58:24;102026.38;;;1.69;73.36
53754;BME280;39667;52.274;20.964;2024-01-30T04:00:55;102023.49;;;1.70;73.51
53754;BME280;39667;52.274;20.964;2024-01-30T04:03:22;102025.09;;;1.71;73.44
53754;BME280;39667;52.274;20.964;2024-01-30T04:05:49;102023.84;;;1.70;73.46
53754;BME280;39667;52.274;20.964;2024-01-30T04:08:20;102020.92;;;1.70;73.49
53754;BME280;39667;52.274;20.964;2024-01-30T04:10:48;102019.19;;;1.71;73.44
53754;BME280;39667;52.274;20.964;2024-01-30T04:13:16;102023.39;;;1.72;73.34
53754;BME280;39667;52.274;20.964;2024-01-30T04:15:44;102029.14;;;1.71;73.44
53754;BME280;39667;52.274;20.964;2024-01-30T04:18:13;102033.13;;;1.75;73.48
53754;BME280;39667;52.274;20.964;2024-01-30T04:20:40;102031.54;;;1.78;73.41
53754;BME280;39667;52.274;20.964;2024-01-30T04:23:09;102033.23;;;1.80;73.43
53754;BME280;39667;52.274;20.964;2024-01-30T04:25:38;102032.09;;;1.82;73.40
53754;BME280;39667;52.274;20.964;2024-01-30T04:28:07;102029.05;;;1.83;73.22
53754;BME280;39667;52.274;20.964;2024-01-30T04:30:35;102028.52;;;1.83;73.32
53754;BME280;39667;52.274;20.964;2024-01-30T04:33:02;102028.23;;;1.84;73.29
53754;BME280;39667;52.274;20.964;2024-01-30T04:35:30;102032.54;;;1.84;73.23
53754;BME280;39667;52.274;20.964;2024-01-30T04:37:59;102028.58;;;1.81;73.05
53754;BME280;39667;52.274;20.964;2024-01-30T04:40:29;102022.48;;;1.77;72.95
53754;BME280;39667;52.274;20.964;2024-01-30T04:42:56;102022.44;;;1.77;73.06
53754;BME280;39667;52.274;20.964;2024-01-30T04:45:25;102023.63;;;1.76;73.08
53754;BME280;39667;52.274;20.964;2024-01-30T04:47:52;102021.56;;;1.77;73.04
53754;BME280;39667;52.274;20.964;2024-01-30T04:50:19;102019.65;;;1.73;72.97
53754;BME280;39667;52.274;20.964;2024-01-30T04:52:49;102021.08;;;1.67;72.81
53754;BME280;39667;52.274;20.964;2024-01-30T04:55:17;102023.56;;;1.65;73.02
53754;BME280;39667;52.274;20.964;2024-01-30T04:57:47;102019.82;;;1.60;72.97
53754;BME280;39667;52.274;20.964;2024-01-30T05:00:15;102022.90;;;1.59;73.13
53754;BME280;39667;52.274;20.964;2024-01-30T05:02:45;102017.14;;;1.59;73.12
53754;BME280;39667;52.274;20.964;2024-01-30T05:05:13;102021.67;;;1.62;73.18
53754;BME280;39667;52.274;20.964;2024-01-30T05:07:41;102023.63;;;1.66;73.15
53754;BME280;39667;52.274;20.964;2024-01-30T05:10:11;102018.38;;;1.69;73.12
53754;BME280;39667;52.274;20.964;2024-01-30T05:12:39;102018.50;;;1.71;73.10
53754;BME280;39667;52.274;20.964;2024-01-30T05:15:08;102016.02;;;1.70;72.87
53754;BME280;39667;52.274;20.964;2024-01-30T05:17:36;102021.23;;;1.70;72.93
53754;BME280;39667;52.274;20.964;2024-01-30T05:20:08;102020.48;;;1.69;72.99
53754;BME280;39667;52.274;20.964;2024-01-30T05:22:38;102019.30;;;1.67;72.76
53754;BME280;39667;52.274;20.964;2024-01-30T05:25:07;102015.06;;;1.62;72.76
53754;BME280;39667;52.274;20.964;2024-01-30T05:27:34;102014.39;;;1.59;72.92
53754;BME280;39667;52.274;20.964;2024-01-30T05:30:03;102017.61;;;1.61;72.93
53754;BME280;39667;52.274;20.964;2024-01-30T05:32:30;102014.95;;;1.63;72.97
53754;BME280;39667;52.274;20.964;2024-01-30T05:34:58;102019.45;;;1.63;72.75
53754;BME280;39667;52.274;20.964;2024-01-30T05:37:33;102021.18;;;1.59;72.85
53754;BME280;39667;52.274;20.964;2024-01-30T05:40:01;102022.81;;;1.57;72.77
53754;BME280;39667;52.274;20.964;2024-01-30T05:42:30;102024.71;;;1.57;72.88
53754;BME280;39667;52.274;20.964;2024-01-30T05:44:58;102029.11;;;1.55;72.68
53754;BME280;39667;52.274;20.964;2024-01-30T05:47:26;102025.13;;;1.52;72.83
53754;BME280;39667;52.274;20.964;2024-01-30T05:49:54;102025.91;;;1.47;72.66
53754;BME280;39667;52.274;20.964;2024-01-30T05:52:21;102017.42;;;1.48;72.92
53754;BME280;39667;52.274;20.964;2024-01-30T05:54:49;102017.08;;;1.44;72.84
53754;BME280;39667;52.274;20.964;2024-01-30T05:57:16;102015.58;;;1.45;72.96
53754;BME280;39667;52.274;20.964;2024-01-30T05:59:48;102020.67;;;1.43;72.85
53754;BME280;39667;52.274;20.964;2024-01-30T06:02:15;102020.77;;;1.42;72.93
53754;BME280;39667;52.274;20.964;2024-01-30T06:04:44;102026.58;;;1.40;73.02
53754;BME280;39667;52.274;20.964;2024-01-30T06:07:13;102024.61;;;1.42;73.16
53754;BME280;39667;52.274;20.964;2024-01-30T06:09:45;102018.06;;;1.43;72.96
53754;BME280;39667;52.274;20.964;2024-01-30T06:12:13;102013.58;;;1.44;72.97
53754;BME280;39667;52.274;20.964;2024-01-30T06:14:40;102013.88;;;1.46;72.99
53754;BME280;39667;52.274;20.964;2024-01-30T06:17:14;102011.59;;;1.49;72.98
53754;BME280;39667;52.274;20.964;2024-01-30T06:19:41;102012.56;;;1.51;72.88
53754;BME280;39667;52.274;20.964;2024-01-30T06:22:10;102013.02;;;1.53;72.79
53754;BME280;39667;52.274;20.964;2024-01-30T06:24:38;102014.49;;;1.51;72.76
53754;BME280;39667;52.274;20.964;2024-01-30T06:27:05;102019.02;;;1.51;72.87
53754;BME280;39667;52.274;20.964;2024-01-30T06:29:35;102016.81;;;1.52;72.66
53754;BME280;39667;52.274;20.964;2024-01-30T06:32:02;102020.57;;;1.51;72.66
53754;BME280;39667;52.274;20.964;2024-01-30T06:34:31;102025.09;;;1.48;72.63
53754;BME280;39667;52.274;20.964;2024-01-30T06:36:59;102029.61;;;1.52;72.74
53754;BME280;39667;52.274;20.964;2024-01-30T06:39:29;102029.40;;;1.54;72.63
53754;BME280;39667;52.274;20.964;2024-01-30T06:41:57;102029.75;;;1.54;72.35
53754;BME280;39667;52.274;20.964;2024-01-30T06:44:24;102027.29;;;1.54;72.43
53754;BME280;39667;52.274;20.964;2024-01-30T06:46:52;102027.98;;;1.50;72.30
53754;BME280;39667;52.274;20.964;2024-01-30T06:49:21;102028.54;;;1.47;72.40
53754;BME280;39667;52.274;20.964;2024-01-30T06:51:48;102026.28;;;1.44;72.46
53754;BME280;39667;52.274;20.964;2024-01-30T06:54:16;102026.98;;;1.48;72.61
53754;BME280;39667;52.274;20.964;2024-01-30T06:56:46;102026.20;;;1.46;72.44
53754;BME280;39667;52.274;20.964;2024-01-30T06:59:13;102024.39;;;1.48;72.47
53754;BME280;39667;52.274;20.964;2024-01-30T07:01:43;102024.13;;;1.46;72.42
53754;BME280;39667;52.274;20.964;2024-01-30T07:04:12;102023.30;;;1.47;72.50
53754;BME280;39667;52.274;20.964;2024-01-30T07:06:40;102026.73;;;1.50;72.47
53754;BME280;39667;52.274;20.964;2024-01-30T07:09:08;102027.92;;;1.52;72.45
53754;BME280;39667;52.274;20.964;2024-01-30T07:11:35;102024.67;;;1.57;72.55
53754;BME280;39667;52.274;20.964;2024-01-30T07:14:03;102026.60;;;1.57;72.14
53754;BME280;39667;52.274;20.964;2024-01-30T07:16:33;102027.09;;;1.59;72.16
53754;BME280;39667;52.274;20.964;2024-01-30T07:19:02;102025.42;;;1.64;72.02
53754;BME280;39667;52.274;20.964;2024-01-30T07:21:29;102032.62;;;1.69;71.94
53754;BME280;39667;52.274;20.964;2024-01-30T07:23:57;102036.06;;;1.71;71.80
53754;BME280;39667;52.274;20.964;2024-01-30T07:26:27;102035.61;;;1.76;71.98
53754;BME280;39667;52.274;20.964;2024-01-30T07:28:57;102036.64;;;1.82;71.81
53754;BME280;39667;52.274;20.964;2024-01-30T07:31:24;102033.99;;;1.88;71.81
53754;BME280;39667;52.274;20.964;2024-01-30T07:33:53;102031.35;;;1.94;71.51
53754;BME280;39667;52.274;20.964;2024-01-30T07:36:21;102031.40;;;1.98;71.44
53754;BME280;39667;52.274;20.964;2024-01-30T07:38:50;102029.58;;;2.04;71.16
53754;BME280;39667;52.274;20.964;2024-01-30T07:41:17;102033.31;;;2.05;71.05
53754;BME280;39667;52.274;20.964;2024-01-30T07:43:45;102034.55;;;2.09;71.06
53754;BME280;39667;52.274;20.964;2024-01-30T07:46:12;102032.13;;;2.16;71.03
53754;BME280;39667;52.274;20.964;2024-01-30T07:48:40;102035.96;;;2.23;70.94
53754;BME280;39667;52.274;20.964;2024-01-30T07:51:09;102031.51;;;2.31;70.79
53754;BME280;39667;52.274;20.964;2024-01-30T07:53:37;102028.02;;;2.41;70.71
53754;BME280;39667;52.274;20.964;2024-01-30T07:56:08;102030.17;;;2.50;70.50
53754;BME280;39667;52.274;20.964;2024-01-30T07:58:37;102032.41;;;2.56;70.19
53754;BME280;39667;52.274;20.964;2024-01-30T08:01:05;102029.46;;;2.64;70.00
53754;BME280;39667;52.274;20.964;2024-01-30T08:03:34;102032.92;;;2.70;70.04
53754;BME280;39667;52.274;20.964;2024-01-30T08:06:01;102032.04;;;2.77;69.69
53754;BME280;39667;52.274;20.964;2024-01-30T08:08:30;102032.20;;;2.84;69.63
53754;BME280;39667;52.274;20.964;2024-01-30T08:10:58;102031.11;;;2.90;69.44
53754;BME280;39667;52.274;20.964;2024-01-30T08:13:25;102028.00;;;2.94;69.28
53754;BME280;39667;52.274;20.964;2024-01-30T08:15:53;102030.23;;;3.01;68.94
53754;BME280;39667;52.274;20.964;2024-01-30T08:18:20;102023.17;;;2.99;68.49
53754;BME280;39667;52.274;20.964;2024-01-30T08:20:50;102023.44;;;3.01;68.72
53754;BME280;39667;52.274;20.964;2024-01-30T08:23:18;102025.05;;;3.05;68.59
53754;BME280;39667;52.274;20.964;2024-01-30T08:25:48;102020.73;;;3.10;68.38
53754;BME280;39667;52.274;20.964;2024-01-30T08:28:18;102010.89;;;3.15;68.07
53754;BME280;39667;52.274;20.964;2024-01-30T08:30:47;102011.23;;;3.18;67.56
53754;BME280;39667;52.274;20.964;2024-01-30T08:33:15;102008.05;;;3.21;67.74
53754;BME280;39667;52.274;20.964;2024-01-30T08:35:42;102006.16;;;3.26;67.56
53754;BME280;39667;52.274;20.964;2024-01-30T08:38:11;102001.96;;;3.33;67.51
53754;BME280;39667;52.274;20.964;2024-01-30T08:40:39;102007.25;;;3.42;67.48
53754;BME280;39667;52.274;20.964;2024-01-30T08:43:08;102010.14;;;3.55;67.41
53754;BME280;39667;52.274;20.964;2024-01-30T08:45:37;102006.71;;;3.68;67.06
53754;BME280;39667;52.274;20.964;2024-01-30T08:48:06;102010.39;;;3.81;66.87
53754;BME280;39667;52.274;20.964;2024-01-30T08:50:34;102013.59;;;3.94;66.76
53754;BME280;39667;52.274;20.964;2024-01-30T08:53:01;102016.92;;;4.11;66.44
53754;BME280;39667;52.274;20.964;2024-01-30T08:55:29;102012.08;;;4.20;65.72
53754;BME280;39667;52.274;20.964;2024-01-30T08:57:57;102011.65;;;4.26;65.48
53754;BME280;39667;52.274;20.964;2024-01-30T09:00:26;102011.77;;;4.37;65.49
53754;BME280;39667;52.274;20.964;2024-01-30T09:02:54;102010.73;;;4.50;65.34
53754;BME280;39667;52.274;20.964;2024-01-30T09:05:25;102010.34;;;4.62;64.75
53754;BME280;39667;52.274;20.964;2024-01-30T09:07:52;102008.34;;;4.77;64.77
53754;BME280;39667;52.274;20.964;2024-01-30T09:10:19;102007.28;;;4.89;64.50
53754;BME280;39667;52.274;20.964;2024-01-30T09:12:47;102009.52;;;4.97;64.02
53754;BME280;39667;52.274;20.964;2024-01-30T09:15:17;102011.08;;;5.06;63.22
53754;BME280;39667;52.274;20.964;2024-01-30T09:17:50;102005.98;;;5.14;63.10
53754;BME280;39667;52.274;20.964;2024-01-30T09:20:41;102001.46;;;5.24;62.96
53754;BME280;39667;52.274;20.964;2024-01-30T09:23:09;102000.07;;;5.38;62.83
53754;BME280;39667;52.274;20.964;2024-01-30T09:25:37;101999.23;;;5.52;62.60
53754;BME280;39667;52.274;20.964;2024-01-30T09:28:05;101997.04;;;5.65;62.20
53754;BME280;39667;52.274;20.964;2024-01-30T09:30:35;101996.73;;;5.76;61.90
53754;BME280;39667;52.274;20.964;2024-01-30T09:33:03;101989.99;;;5.87;61.49
53754;BME280;39667;52.274;20.964;2024-01-30T09:35:31;101990.84;;;6.01;61.36
53754;BME280;39667;52.274;20.964;2024-01-30T09:38:00;101989.23;;;6.15;61.25
53754;BME280;39667;52.274;20.964;2024-01-30T09:40:29;101986.23;;;6.29;61.01
53754;BME280;39667;52.274;20.964;2024-01-30T09:42:58;101985.04;;;6.40;60.47
53754;BME280;39667;52.274;20.964;2024-01-30T09:45:27;101985.72;;;6.51;60.14
53754;BME280;39667;52.274;20.964;2024-01-30T09:47:56;101982.33;;;6.59;59.63
53754;BME280;39667;52.274;20.964;2024-01-30T09:50:26;101986.88;;;6.70;59.36
53754;BME280;39667;52.274;20.964;2024-01-30T09:52:55;101988.90;;;6.79;59.08
53754;BME280;39667;52.274;20.964;2024-01-30T09:55:24;101980.67;;;6.89;58.92
53754;BME280;39667;52.274;20.964;2024-01-30T09:57:51;101979.23;;;7.00;58.40
53754;BME280;39667;52.274;20.964;2024-01-30T10:00:18;101979.75;;;7.11;58.27
53754;BME280;39667;52.274;20.964;2024-01-30T10:02:46;101975.36;;;7.16;57.45
53754;BME280;39667;52.274;20.964;2024-01-30T10:05:16;101973.30;;;7.24;57.83
53754;BME280;39667;52.274;20.964;2024-01-30T10:08:07;101971.66;;;7.39;57.24
53754;BME280;39667;52.274;20.964;2024-01-30T10:10:37;101969.02;;;7.51;56.93
53754;BME280;39667;52.274;20.964;2024-01-30T10:13:05;101964.95;;;7.63;56.65
53754;BME280;39667;52.274;20.964;2024-01-30T10:15:33;101962.14;;;7.68;56.22
53754;BME280;39667;52.274;20.964;2024-01-30T10:18:02;101960.27;;;7.77;55.99
53754;BME280;39667;52.274;20.964;2024-01-30T10:20:36;101957.35;;;7.86;55.86
53754;BME280;39667;52.274;20.964;2024-01-30T10:23:04;101953.86;;;8.00;55.73
53754;BME280;39667;52.274;20.964;2024-01-30T10:25:31;101951.57;;;8.12;55.45
53754;BME280;39667;52.274;20.964;2024-01-30T10:27:59;101950.29;;;8.25;55.27
53754;BME280;39667;52.274;20.964;2024-01-30T10:30:32;101945.18;;;8.38;54.84
53754;BME280;39667;52.274;20.964;2024-01-30T10:33:00;101940.33;;;8.48;54.40
53754;BME280;39667;52.274;20.964;2024-01-30T10:35:28;101937.84;;;8.59;54.25
53754;BME280;39667;52.274;20.964;2024-01-30T10:37:57;101930.26;;;8.66;53.32
53754;BME280;39667;52.274;20.964;2024-01-30T10:40:28;101931.37;;;8.76;53.64
53754;BME280;39667;52.274;20.964;2024-01-30T10:43:03;101925.27;;;8.86;53.15
53754;BME280;39667;52.274;20.964;2024-01-30T10:45:35;101926.79;;;8.91;53.09
53754;BME280;39667;52.274;20.964;2024-01-30T10:48:07;101921.38;;;9.01;52.69
53754;BME280;39667;52.274;20.964;2024-01-30T10:50:37;101919.45;;;9.01;51.98
53754;BME280;39667;52.274;20.964;2024-01-30T10:53:22;101915.59;;;9.10;53.93
53754;BME280;39667;52.274;20.964;2024-01-30T10:55:51;101914.70;;;9.43;55.15
53754;BME280;39667;52.274;20.964;2024-01-30T10:58:21;101908.03;;;9.91;56.33
53754;BME280;39667;52.274;20.964;2024-01-30T11:00:49;101909.13;;;10.67;56.64
53754;BME280;39667;52.274;20.964;2024-01-30T11:03:20;101901.05;;;10.95;54.36
53754;BME280;39667;52.274;20.964;2024-01-30T11:05:52;101899.13;;;11.09;53.05
53754;BME280;39667;52.274;20.964;2024-01-30T11:08:24;101896.70;;;11.26;52.81
53754;BME280;39667;52.274;20.964;2024-01-30T11:10:56;101894.41;;;11.13;51.93
53754;BME280;39667;52.274;20.964;2024-01-30T11:13:31;101892.16;;;11.15;50.78
53754;BME280;39667;52.274;20.964;2024-01-30T11:16:04;101889.89;;;11.04;51.33
53754;BME280;39667;52.274;20.964;2024-01-30T11:18:36;101891.16;;;11.21;52.16
53754;BME280;39667;52.274;20.964;2024-01-30T11:21:06;101886.25;;;11.53;52.55
53754;BME280;39667;52.274;20.964;2024-01-30T11:23:34;101885.22;;;11.91;52.91
53754;BME280;39667;52.274;20.964;2024-01-30T11:26:03;101877.13;;;12.13;50.26
53754;BME280;39667;52.274;20.964;2024-01-30T11:28:33;101877.69;;;11.98;48.95
53754;BME280;39667;52.274;20.964;2024-01-30T11:31:05;101875.16;;;11.74;48.42
53754;BME280;39667;52.274;20.964;2024-01-30T11:33:35;101870.81;;;11.61;49.12
53754;BME280;39667;52.274;20.964;2024-01-30T11:36:04;101868.97;;;11.73;49.47
53754;BME280;39667;52.274;20.964;2024-01-30T11:38:34;101867.63;;;11.80;49.61
53754;BME280;39667;52.274;20.964;2024-01-30T11:41:02;101859.75;;;12.07;50.19
53754;BME280;39667;52.274;20.964;2024-01-30T11:43:31;101853.37;;;12.48;50.08
53754;BME280;39667;52.274;20.964;2024-01-30T11:46:01;101855.33;;;12.53;48.20
53754;BME280;39667;52.274;20.964;2024-01-30T11:48:29;101855.31;;;12.49;48.12
53754;BME280;39667;52.274;20.964;2024-01-30T11:50:57;101852.52;;;12.56;47.48
53754;BME280;39667;52.274;20.964;2024-01-30T11:53:24;101857.39;;;12.43;46.97
53754;BME280;39667;52.274;20.964;2024-01-30T11:55:53;101847.60;;;12.58;48.75
53754;BME280;39667;52.274;20.964;2024-01-30T11:58:20;101843.70;;;12.92;47.52
53754;BME280;39667;52.274;20.964;2024-01-30T12:00:57;101841.50;;;12.76;47.81
53754;BME280;39667;52.274;20.964;2024-01-30T12:03:25;101840.45;;;13.22;47.60
53754;BME280;39667;52.274;20.964;2024-01-30T12:05:57;101846.12;;;13.21;45.90
53754;BME280;39667;52.274;20.964;2024-01-30T12:08:28;101841.27;;;13.04;45.53
53754;BME280;39667;52.274;20.964;2024-01-30T12:10:59;101841.60;;;12.98;46.06
53754;BME280;39667;52.274;20.964;2024-01-30T12:13:29;101838.15;;;12.77;45.31
53754;BME280;39667;52.274;20.964;2024-01-30T12:16:00;101839.77;;;12.49;44.12
53754;BME280;39667;52.274;20.964;2024-01-30T12:18:28;101838.00;;;12.22;44.80
53754;BME280;39667;52.274;20.964;2024-01-30T12:20:59;101837.66;;;12.04;45.00
53754;BME280;39667;52.274;20.964;2024-01-30T12:23:30;101834.08;;;12.18;46.47
53754;BME280;39667;52.274;20.964;2024-01-30T12:25:58;101837.48;;;12.24;45.50
53754;BME280;39667;52.274;20.964;2024-01-30T12:30:15;101839.73;;;12.20;45.38
53754;BME280;39667;52.274;20.964;2024-01-30T12:32:55;101837.52;;;12.08;45.48
53754;BME280;39667;52.274;20.964;2024-01-30T12:35:24;101837.67;;;12.06;45.39
53754;BME280;39667;52.274;20.964;2024-01-30T12:37:54;101832.55;;;12.05;45.45
53754;BME280;39667;52.274;20.964;2024-01-30T12:40:21;101837.63;;;12.01;45.13
53754;BME280;39667;52.274;20.964;2024-01-30T12:42:48;101829.58;;;11.89;44.80
53754;BME280;39667;52.274;20.964;2024-01-30T12:45:17;101830.90;;;11.78;44.92
53754;BME280;39667;52.274;20.964;2024-01-30T12:47:50;101828.14;;;11.65;44.80
53754;BME280;39667;52.274;20.964;2024-01-30T12:50:20;101823.12;;;11.39;44.64
53754;BME280;39667;52.274;20.964;2024-01-30T12:52:49;101823.95;;;11.18;44.99
53754;BME280;39667;52.274;20.964;2024-01-30T12:55:17;101820.73;;;11.14;45.45
53754;BME280;39667;52.274;20.964;2024-01-30T12:57:45;101820.39;;;11.15;45.82
53754;BME280;39667;52.274;20.964;2024-01-30T13:00:14;101818.20;;;11.24;45.94